< < Back
Terminal Aerodrome Forecast


Current Version              Previous Versions:   1  2  3  4  5  6  7  8  9  

Terminal Aerodrome Forecast

681
FTAK31 PAJN 302300
TAFAHN
TAF
PAHN 302327Z 3100/3124 30015G25KT P6SM SCT180
     FM310900 30018G28KT P6SM SKC
      AMD LTD TO CLD VIS AND WIND=

Latest METAR

375
SAUS70 KWBC 310400
MTRAHN
METAR KAHN 310351Z AUTO 32006KT 10SM CLR 03/M07 A3032 RMK AO2 SLP273
T00281072


USA.gov is the U.S. government's official web portal to all federal, state and local government web resources and services.